UKBB

Boryspil International Airport

ICAO Code UKBB
IATA Code KBP
Name Boryspil International Airport
Location Kiev, Kyiv, UA
Elevation 427 Feet / 130.1 Meters
Latitude 50.34500122
Longitude 30.89469910
METAR UKBB 091000Z 01004MPS 1100 0800W R36R/1500N R36L/1600N PRFG OVC001 01/01 Q1014 TEMPO 0700 FG
Extra information Display Charts and CFS
Display NOTAMS
Runway Length Width Surface Elevation
18L 13123 ft 197 ft CON 410 ft
18R 11483 ft 206 ft CON 419 ft
36R 13123 ft 197 ft CON 422 ft
36L 11483 ft 206 ft CON 403 ft